Main page
METAR-TAF:

METAR-TAF

Airports :

London, England

London City Airport

latitude: 51-30N, longitude: 000-03E, elevation: 5 m

Current weather observation

The report was made 35 minutes ago, at 16:50 UTC
Wind 11 kt from the East/Southeast
Temperature 23°C
Humidity 41%
Pressure 1012 hPa
Visibility 10 km or more

METAR: EGLC 261650Z AUTO 11011KT 9999 NCD 23/09 Q1012

Time: 18:25 (17:25 UTC)

Forecast

The report was made 3 hours and 25 minutes ago, at 14:00 UTC
Forecast valid from 26 at 15 UTC to 26 at 21 UTC
Wind 5 kt from the East
Visibility 10 km or more
Scattered clouds at a height of 4500 ft

TAF: EGLC 261400Z 2615/2621 09005KT 9999 SCT045

Weather observations and forecasts of more than 4000 airports (METAR and TAF reports).

The available stations are represented by yellow and red dots on the map.

Hover mouse over dot to see the name of the station.

Then click to see weather observations and forecasts.

To change the map : click on the green buttons with a black cross to zoom in, on the green button with a dash to zoom out, or on the green arrows for adjacent maps.


METAR-TAF: